createdAt,value
2023-01-04T00:00:34.379Z,102303.81
2023-01-04T00:03:08.204Z,102303.31
2023-01-04T00:05:36.041Z,102303.81
2023-01-04T00:08:06.972Z,102306.06
2023-01-04T00:10:35.515Z,102302.53
2023-01-04T00:13:03.485Z,102292.50
2023-01-04T00:15:33.304Z,102290.41
2023-01-04T00:18:02.931Z,102288.97
2023-01-04T00:20:34.233Z,102290.03
2023-01-04T00:23:01.901Z,102295.69
2023-01-04T00:25:34.237Z,102302.97
2023-01-04T00:28:01.833Z,102301.69
2023-01-04T00:30:31.946Z,102294.38
2023-01-04T00:33:02.542Z,102297.91
2023-01-04T00:35:45.415Z,102287.81
2023-01-04T00:38:16.138Z,102293.06
2023-01-04T00:40:46.495Z,102291.44
2023-01-04T00:43:20.479Z,102294.63
2023-01-04T00:45:50.451Z,102290.41
2023-01-04T00:48:18.035Z,102289.56
2023-01-04T00:50:47.433Z,102284.75
2023-01-04T00:53:16.166Z,102283.94
2023-01-04T00:55:46.485Z,102285.94
2023-01-04T00:58:14.280Z,102280.28
2023-01-04T01:00:44.170Z,102282.19
2023-01-04T01:03:14.623Z,102285.69
2023-01-04T01:05:42.221Z,102290.84
2023-01-04T01:08:26.034Z,102294.16
2023-01-04T01:10:56.112Z,102295.69
2023-01-04T01:13:24.045Z,102290.75
2023-01-04T01:15:53.994Z,102293.94
2023-01-04T01:18:21.682Z,102297.19
2023-01-04T01:20:52.493Z,102296.75
2023-01-04T01:23:22.010Z,102304.84
2023-01-04T01:26:03.289Z,102313.44
2023-01-04T01:28:37.240Z,102301.44
2023-01-04T01:31:29.680Z,102303.56
2023-01-04T01:34:02.064Z,102303.09
2023-01-04T01:36:29.826Z,102309.91
2023-01-04T01:39:00.349Z,102302.50
2023-01-04T01:41:36.099Z,102296.50
2023-01-04T01:44:41.665Z,102309.91
2023-01-04T01:47:20.123Z,102301.44
2023-01-04T01:49:54.611Z,102312.28
2023-01-04T01:52:29.140Z,102320.75
2023-01-04T01:55:04.946Z,102309.44
2023-01-04T01:57:38.779Z,102312.72
2023-01-04T02:00:16.561Z,102307.09
2023-01-04T02:02:57.187Z,102310.72
2023-01-04T02:05:28.508Z,102311.69
2023-01-04T02:07:56.696Z,102324.66
2023-01-04T02:10:27.330Z,102318.56
2023-01-04T02:12:57.854Z,102313.97
2023-01-04T02:15:38.391Z,102315.38
2023-01-04T02:18:21.630Z,102310.56
2023-01-04T02:21:41.781Z,102318.31
2023-01-04T02:24:33.683Z,102307.47
2023-01-04T02:27:34.909Z,102296.25
2023-01-04T02:30:31.563Z,102290.16
2023-01-04T02:33:24.728Z,102295.91
2023-01-04T02:36:14.963Z,102287.34
2023-01-04T02:38:54.823Z,102284.00
2023-01-04T02:41:34.224Z,102278.44
2023-01-04T02:44:31.088Z,102282.56
2023-01-04T02:47:47.093Z,102277.22
2023-01-04T02:50:34.065Z,102282.72
2023-01-04T02:53:09.208Z,102274.84
2023-01-04T02:56:35.458Z,102278.94
2023-01-04T02:59:27.637Z,102279.41
2023-01-04T03:02:48.868Z,102276.69
2023-01-04T03:05:59.470Z,102282.09
2023-01-04T03:08:38.168Z,102289.28
2023-01-04T03:11:29.331Z,102281.72
2023-01-04T03:14:32.422Z,102275.25
2023-01-04T03:17:08.791Z,102271.69
2023-01-04T03:19:55.244Z,102270.41
2023-01-04T03:23:00.157Z,102264.59
2023-01-04T03:25:54.099Z,102272.22
2023-01-04T03:28:48.384Z,102269.94
2023-01-04T03:31:50.849Z,102266.56
2023-01-04T03:34:37.265Z,102284.50
2023-01-04T03:37:43.934Z,102276.53
2023-01-04T03:40:46.333Z,102280.09
2023-01-04T03:43:37.204Z,102269.97
2023-01-04T03:46:23.510Z,102262.00
2023-01-04T03:49:00.871Z,102258.91
2023-01-04T03:51:33.776Z,102256.91
2023-01-04T03:54:11.823Z,102259.63
2023-01-04T03:56:43.436Z,102247.78
2023-01-04T03:59:16.364Z,102254.44
2023-01-04T04:01:50.361Z,102247.97
2023-01-04T04:04:38.926Z,102251.50
2023-01-04T04:07:28.035Z,102253.38
2023-01-04T04:10:00.184Z,102255.38
2023-01-04T04:12:27.876Z,102259.34
2023-01-04T04:14:55.566Z,102252.44
2023-01-04T04:17:23.071Z,102260.22
2023-01-04T04:19:50.774Z,102259.34
2023-01-04T04:22:20.965Z,102250.06
2023-01-04T04:24:53.955Z,102255.00
2023-01-04T04:27:24.986Z,102257.38
2023-01-04T04:30:02.592Z,102254.09
2023-01-04T04:32:32.662Z,102254.78
2023-01-04T04:35:03.362Z,102264.44
2023-01-04T04:37:35.068Z,102266.41
2023-01-04T04:40:05.887Z,102267.59
2023-01-04T04:42:33.641Z,102273.34
2023-01-04T04:45:05.966Z,102258.09
2023-01-04T04:47:33.417Z,102263.59
2023-01-04T04:50:02.571Z,102260.75
2023-01-04T04:52:35.745Z,102264.78
2023-01-04T04:55:03.536Z,102266.78
2023-01-04T04:57:31.419Z,102253.47
2023-01-04T04:59:59.932Z,102249.47
2023-01-04T05:02:27.581Z,102243.50
2023-01-04T05:04:58.088Z,102253.97
2023-01-04T05:07:28.021Z,102255.13
2023-01-04T05:09:58.532Z,102259.13
2023-01-04T05:12:45.146Z,102258.31
2023-01-04T05:15:14.975Z,102258.66
2023-01-04T05:17:47.870Z,102261.00
2023-01-04T05:20:15.775Z,102265.34
2023-01-04T05:22:46.426Z,102267.47
2023-01-04T05:25:14.947Z,102277.13
2023-01-04T05:27:45.503Z,102276.50
2023-01-04T05:30:35.353Z,102286.28
2023-01-04T05:33:03.932Z,102285.31
2023-01-04T05:35:34.360Z,102294.97
2023-01-04T05:38:01.989Z,102296.97
2023-01-04T05:40:30.128Z,102291.44
2023-01-04T05:43:02.192Z,102283.09
2023-01-04T05:45:32.911Z,102279.13
2023-01-04T05:48:03.806Z,102292.53
2023-01-04T05:50:32.346Z,102296.16
2023-01-04T05:53:07.014Z,102284.41
2023-01-04T05:55:38.040Z,102295.19
2023-01-04T05:58:06.081Z,102301.41
2023-01-04T06:00:33.491Z,102304.25
2023-01-04T06:03:01.109Z,102312.81
2023-01-04T06:05:29.043Z,102315.63
2023-01-04T06:07:59.509Z,102296.25
2023-01-04T06:10:30.048Z,102307.66
2023-01-04T06:13:00.272Z,102314.94
2023-01-04T06:15:35.387Z,102305.22
2023-01-04T06:18:12.954Z,102296.75
2023-01-04T06:20:43.962Z,102298.03
2023-01-04T06:23:11.808Z,102299.81
2023-01-04T06:25:43.026Z,102303.44
2023-01-04T06:28:11.154Z,102312.59
2023-01-04T06:30:46.487Z,102313.31
2023-01-04T06:33:17.094Z,102312.59
2023-01-04T06:35:57.243Z,102308.59
2023-01-04T06:38:31.069Z,102308.72
2023-01-04T06:41:04.664Z,102303.09
2023-01-04T06:43:36.640Z,102310.59
2023-01-04T06:46:09.672Z,102309.91
2023-01-04T06:48:39.890Z,102313.78
2023-01-04T06:51:10.346Z,102321.44
2023-01-04T06:53:40.767Z,102314.63
2023-01-04T06:56:13.152Z,102317.06
2023-01-04T06:58:42.062Z,102319.31
2023-01-04T07:01:17.995Z,102323.69
2023-01-04T07:03:45.567Z,102330.75
2023-01-04T07:06:15.897Z,102327.94
2023-01-04T07:08:44.661Z,102326.75
2023-01-04T07:11:19.932Z,102338.25
2023-01-04T07:13:49.708Z,102337.00
2023-01-04T07:16:17.650Z,102338.91
2023-01-04T07:18:45.136Z,102338.66
2023-01-04T07:21:12.544Z,102345.72
2023-01-04T07:23:43.006Z,102343.38
2023-01-04T07:26:11.083Z,102352.91
2023-01-04T07:29:00.228Z,102348.66
2023-01-04T07:31:30.279Z,102352.19
2023-01-04T07:34:00.720Z,102359.97
2023-01-04T07:36:31.148Z,102352.19
2023-01-04T07:39:03.148Z,102351.50
2023-01-04T07:41:30.664Z,102351.56
2023-01-04T07:44:01.412Z,102347.22
2023-01-04T07:46:31.737Z,102350.78
2023-01-04T07:49:00.287Z,102355.13
2023-01-04T07:51:27.894Z,102354.34
2023-01-04T07:54:00.163Z,102357.41
2023-01-04T07:56:36.019Z,102362.97
2023-01-04T07:59:16.425Z,102355.34
2023-01-04T08:01:45.310Z,102360.50
2023-01-04T08:04:22.111Z,102354.47
2023-01-04T08:06:53.060Z,102359.44
2023-01-04T08:09:23.916Z,102357.47
2023-01-04T08:11:59.452Z,102367.50
2023-01-04T08:14:27.264Z,102371.72
2023-01-04T08:17:00.949Z,102365.09
2023-01-04T08:19:28.605Z,102356.22
2023-01-04T08:22:04.389Z,102361.28
2023-01-04T08:24:32.529Z,102355.78
2023-01-04T08:27:00.511Z,102370.03
2023-01-04T08:29:36.567Z,102370.50
2023-01-04T08:32:04.971Z,102381.44
2023-01-04T08:34:36.395Z,102375.19
2023-01-04T08:37:12.284Z,102379.66
2023-01-04T08:39:45.316Z,102383.47
2023-01-04T08:42:25.120Z,102379.13
2023-01-04T08:45:01.584Z,102378.25
2023-01-04T08:47:34.587Z,102381.81
2023-01-04T08:50:10.358Z,102374.97
2023-01-04T08:52:41.939Z,102376.53
2023-01-04T08:55:17.749Z,102381.75
2023-01-04T08:57:54.475Z,102379.25
2023-01-04T09:00:25.687Z,102383.66
2023-01-04T09:03:01.641Z,102368.88
2023-01-04T09:05:33.208Z,102378.34
2023-01-04T09:08:03.986Z,102372.09
2023-01-04T09:10:32.027Z,102376.03
2023-01-04T09:13:03.060Z,102378.06
2023-01-04T09:15:34.449Z,102379.03
2023-01-04T09:18:31.132Z,102380.97
2023-01-04T09:20:53.729Z,102393.28
2023-01-04T09:23:28.817Z,102391.78
2023-01-04T09:26:09.314Z,102386.28
2023-01-04T09:28:43.731Z,102387.34
2023-01-04T09:31:22.474Z,102392.53
2023-01-04T09:36:39.837Z,102392.56
2023-01-04T09:39:09.161Z,102390.19
2023-01-04T09:41:52.507Z,102390.34
2023-01-04T09:47:44.073Z,102383.84
2023-01-04T09:50:36.853Z,102383.28
2023-01-04T09:53:23.728Z,102385.25
2023-01-04T09:55:57.823Z,102385.03
2023-01-04T09:58:32.163Z,102377.03
2023-01-04T10:01:17.252Z,102373.84
2023-01-04T10:03:56.882Z,102379.84
2023-01-04T10:06:26.222Z,102379.84
2023-01-04T10:09:08.018Z,102371.59
2023-01-04T10:12:14.312Z,102370.66
2023-01-04T10:15:07.746Z,102369.25
2023-01-04T10:21:32.228Z,102365.25
2023-01-04T10:24:15.036Z,102362.59
2023-01-04T10:26:49.947Z,102359.97
2023-01-04T10:29:29.830Z,102358.69
2023-01-04T10:32:26.945Z,102355.66
2023-01-04T10:35:02.685Z,102350.03
2023-01-04T10:37:53.788Z,102344.97
2023-01-04T10:40:27.708Z,102342.19
2023-01-04T10:43:23.538Z,102330.59
2023-01-04T10:46:02.991Z,102326.41
2023-01-04T10:48:48.897Z,102317.13
2023-01-04T10:51:34.698Z,102312.34
2023-01-04T10:54:23.734Z,102305.44
2023-01-04T10:57:11.586Z,102304.97
2023-01-04T10:59:49.328Z,102306.53
2023-01-04T11:02:40.927Z,102301.31
2023-01-04T11:05:49.267Z,102300.50
2023-01-04T11:09:02.066Z,102285.09
2023-01-04T11:11:40.954Z,102289.97
2023-01-04T11:14:10.523Z,102292.22
2023-01-04T11:16:44.271Z,102274.44
2023-01-04T11:19:16.161Z,102278.06
2023-01-04T11:21:59.086Z,102281.72
2023-01-04T11:24:38.965Z,102280.22
2023-01-04T11:27:16.255Z,102266.19
2023-01-04T11:29:58.284Z,102265.06
2023-01-04T11:33:03.321Z,102260.59
2023-01-04T11:35:42.484Z,102266.84
2023-01-04T11:38:19.169Z,102257.38
2023-01-04T11:41:02.684Z,102245.47
2023-01-04T11:43:38.425Z,102238.78
2023-01-04T11:46:21.723Z,102242.09
2023-01-04T11:48:50.320Z,102242.34
2023-01-04T11:51:28.883Z,102238.09
2023-01-04T11:54:05.984Z,102231.94
2023-01-04T11:56:37.480Z,102239.38
2023-01-04T11:59:25.117Z,102237.78
2023-01-04T12:02:42.116Z,102238.44
2023-01-04T12:05:30.348Z,102232.03
2023-01-04T12:08:03.227Z,102228.69
2023-01-04T12:10:41.928Z,102228.50
2023-01-04T12:13:12.708Z,102226.78
2023-01-04T12:16:03.157Z,102218.75
2023-01-04T12:18:39.129Z,102220.81
2023-01-04T12:21:27.598Z,102213.50
2023-01-04T12:24:00.888Z,102220.22
2023-01-04T12:26:36.094Z,102213.47
2023-01-04T12:29:24.882Z,102202.31
2023-01-04T12:32:14.589Z,102193.19
2023-01-04T12:34:47.513Z,102189.97
2023-01-04T12:37:36.678Z,102190.25
2023-01-04T12:40:42.825Z,102181.06
2023-01-04T12:43:16.664Z,102170.63
2023-01-04T12:45:48.623Z,102172.63
2023-01-04T12:48:49.699Z,102174.38
2023-01-04T12:51:32.827Z,102162.44
2023-01-04T12:54:06.077Z,102163.53
2023-01-04T12:57:11.253Z,102162.81
2023-01-04T12:59:57.488Z,102157.69
2023-01-04T13:02:51.114Z,102152.25
2023-01-04T13:08:17.017Z,102141.78
2023-01-04T13:10:55.272Z,102138.13
2023-01-04T13:13:41.500Z,102130.94
2023-01-04T13:16:30.497Z,102135.06
2023-01-04T13:19:12.604Z,102138.88
2023-01-04T13:21:47.736Z,102129.31
2023-01-04T13:24:24.523Z,102130.72
2023-01-04T13:26:53.002Z,102117.75
2023-01-04T13:29:31.596Z,102123.53
2023-01-04T13:32:21.645Z,102117.94
2023-01-04T13:34:59.880Z,102117.28
2023-01-04T13:37:43.990Z,102119.72
2023-01-04T13:40:29.689Z,102113.00
2023-01-04T13:43:28.153Z,102109.97
2023-01-04T13:46:27.035Z,102111.81
2023-01-04T13:49:04.614Z,102113.00
2023-01-04T13:51:38.529Z,102121.13
2023-01-04T13:54:35.822Z,102116.25
2023-01-04T13:57:15.236Z,102108.25
2023-01-04T13:59:51.179Z,102120.31
2023-01-04T14:02:29.099Z,102113.84
2023-01-04T14:05:04.053Z,102121.00
2023-01-04T14:07:48.171Z,102128.78
2023-01-04T14:10:22.859Z,102121.94
2023-01-04T14:12:58.790Z,102125.50
2023-01-04T14:15:27.207Z,102125.50
2023-01-04T14:18:05.891Z,102124.75
2023-01-04T14:20:37.339Z,102121.31
2023-01-04T14:23:28.841Z,102114.75
2023-01-04T14:26:00.667Z,102118.38
2023-01-04T14:28:33.523Z,102116.41
2023-01-04T14:31:10.585Z,102111.69
2023-01-04T14:33:46.736Z,102109.94
2023-01-04T14:36:26.447Z,102098.19
2023-01-04T14:39:12.924Z,102103.06
2023-01-04T14:41:55.004Z,102090.75
2023-01-04T14:44:31.122Z,102094.94
2023-01-04T14:47:01.883Z,102091.91
2023-01-04T14:49:32.101Z,102078.41
2023-01-04T14:52:03.016Z,102083.25
2023-01-04T14:54:35.470Z,102090.22
2023-01-04T14:57:12.431Z,102084.38
2023-01-04T14:59:46.142Z,102080.47
2023-01-04T15:02:19.337Z,102090.34
2023-01-04T15:04:47.570Z,102091.28
2023-01-04T15:07:40.245Z,102096.44
2023-01-04T15:10:22.026Z,102099.41
2023-01-04T15:12:52.727Z,102090.16
2023-01-04T15:15:24.229Z,102091.81
2023-01-04T15:17:52.188Z,102083.94
2023-01-04T15:20:28.728Z,102085.88
2023-01-04T15:23:02.157Z,102084.94
2023-01-04T15:25:32.998Z,102082.34
2023-01-04T15:28:04.229Z,102081.31
2023-01-04T15:30:35.356Z,102082.41
2023-01-04T15:33:12.378Z,102080.69
2023-01-04T15:35:45.387Z,102072.81
2023-01-04T15:38:18.183Z,102074.06
2023-01-04T15:40:48.567Z,102072.97
2023-01-04T15:43:23.859Z,102072.44
2023-01-04T15:45:56.448Z,102075.28
2023-01-04T15:48:34.055Z,102067.00
2023-01-04T15:51:09.057Z,102073.00
2023-01-04T15:53:36.857Z,102070.09
2023-01-04T15:56:07.239Z,102070.94
2023-01-04T15:58:40.961Z,102070.94
2023-01-04T16:01:17.099Z,102064.91
2023-01-04T16:03:53.699Z,102068.91
2023-01-04T16:06:27.600Z,102065.06
2023-01-04T16:08:59.133Z,102066.78
2023-01-04T16:11:26.796Z,102059.56
2023-01-04T16:13:58.227Z,102059.47
2023-01-04T16:16:32.852Z,102062.72
2023-01-04T16:19:02.513Z,102067.13
2023-01-04T16:21:31.741Z,102064.78
2023-01-04T16:24:17.241Z,102060.34
2023-01-04T16:27:00.911Z,102061.19
2023-01-04T16:29:31.087Z,102053.38
2023-01-04T16:32:04.115Z,102045.59
2023-01-04T16:34:34.886Z,102051.03
2023-01-04T16:37:15.566Z,102038.13
2023-01-04T16:42:34.074Z,102035.00
2023-01-04T16:45:02.927Z,102046.97
2023-01-04T16:47:41.304Z,102040.84
2023-01-04T16:50:14.232Z,102038.34
2023-01-04T16:52:44.594Z,102035.72
2023-01-04T16:55:23.602Z,102044.38
2023-01-04T16:57:52.824Z,102042.72
2023-01-04T17:00:24.093Z,102044.28
2023-01-04T17:02:57.990Z,102035.78
2023-01-04T17:05:28.802Z,102039.19
2023-01-04T17:08:04.037Z,102051.88
2023-01-04T17:10:37.424Z,102042.47
2023-01-04T17:13:16.524Z,102038.00
2023-01-04T17:15:44.753Z,102036.94
2023-01-04T17:18:17.768Z,102031.53
2023-01-04T17:21:24.115Z,102045.13
2023-01-04T17:23:50.829Z,102038.56
2023-01-04T17:26:25.313Z,102033.00
2023-01-04T17:28:54.513Z,102044.22
2023-01-04T17:31:27.678Z,102044.22
2023-01-04T17:33:57.391Z,102035.28
2023-01-04T17:36:32.674Z,102026.34
2023-01-04T17:39:01.131Z,102022.72
2023-01-04T17:41:30.443Z,102018.31
2023-01-04T17:44:04.809Z,102019.06
2023-01-04T17:46:36.876Z,102022.63
2023-01-04T17:49:22.312Z,102014.88
2023-01-04T17:51:54.624Z,102019.69
2023-01-04T17:54:25.557Z,102016.78
2023-01-04T17:56:57.870Z,102018.44
2023-01-04T17:59:25.390Z,102025.72
2023-01-04T18:01:55.436Z,102027.72
2023-01-04T18:04:25.173Z,102011.13
2023-01-04T18:06:57.858Z,102017.63
2023-01-04T18:09:30.513Z,102005.38
2023-01-04T18:11:57.814Z,102002.56
2023-01-04T18:14:31.020Z,102005.03
2023-01-04T18:16:58.924Z,102008.22
2023-01-04T18:19:29.151Z,102012.69
2023-01-04T18:21:59.003Z,102010.69
2023-01-04T18:24:42.155Z,102009.75
2023-01-04T18:27:22.051Z,102001.19
2023-01-04T18:29:52.000Z,102003.19
2023-01-04T18:32:23.388Z,101997.00
2023-01-04T18:35:04.438Z,102004.31
2023-01-04T18:37:35.912Z,102007.78
2023-01-04T18:40:04.749Z,102016.69
2023-01-04T18:42:34.767Z,102017.63
2023-01-04T18:45:02.113Z,102012.16
2023-01-04T18:47:34.823Z,102018.44
2023-01-04T18:50:05.112Z,102013.88
2023-01-04T18:52:37.798Z,102013.94
2023-01-04T18:55:08.065Z,102001.50
2023-01-04T18:57:37.797Z,102016.06
2023-01-04T19:00:11.653Z,102018.78
2023-01-04T19:02:44.419Z,102011.97
2023-01-04T19:05:13.394Z,102011.88
2023-01-04T19:07:46.268Z,102015.97
2023-01-04T19:10:17.024Z,102020.72
2023-01-04T19:12:49.201Z,102020.72
2023-01-04T19:15:16.537Z,102014.25
2023-01-04T19:17:46.522Z,102017.88
2023-01-04T19:20:14.092Z,102027.09
2023-01-04T19:22:47.243Z,102024.34
2023-01-04T19:25:17.275Z,102015.53
2023-01-04T19:27:47.530Z,102019.91
2023-01-04T19:30:17.071Z,102003.28
2023-01-04T19:32:49.229Z,102002.13
2023-01-04T19:35:16.626Z,101978.59
2023-01-04T19:37:49.152Z,101973.31
2023-01-04T19:40:18.637Z,101993.09
2023-01-04T19:42:48.130Z,101993.91
2023-01-04T19:45:18.464Z,101985.91
2023-01-04T19:47:51.747Z,101986.34
2023-01-04T19:50:23.910Z,101981.53
2023-01-04T19:52:53.640Z,101975.03
2023-01-04T19:55:24.529Z,101966.94
2023-01-04T19:57:54.257Z,101965.56
2023-01-04T20:00:26.906Z,101965.09
2023-01-04T20:02:56.687Z,101967.13
2023-01-04T20:05:24.199Z,101979.13
2023-01-04T20:07:53.836Z,101973.84
2023-01-04T20:10:21.171Z,101967.16
2023-01-04T20:12:50.995Z,101967.38
2023-01-04T20:15:18.489Z,101984.75
2023-01-04T20:17:50.983Z,101987.50
2023-01-04T20:20:22.094Z,101988.91
2023-01-04T20:22:50.287Z,101989.38
2023-01-04T20:25:20.052Z,101987.38
2023-01-04T20:27:51.026Z,101989.81
2023-01-04T20:30:23.339Z,101989.72
2023-01-04T20:32:53.108Z,101986.09
2023-01-04T20:35:21.282Z,101988.91
2023-01-04T20:37:49.210Z,101994.06
2023-01-04T20:40:24.923Z,101988.91
2023-01-04T20:43:10.723Z,101980.16
2023-01-04T20:45:46.002Z,101988.78
2023-01-04T20:48:16.417Z,101980.94
2023-01-04T20:50:46.140Z,101988.22
2023-01-04T20:53:18.843Z,101990.63
2023-01-04T20:55:48.771Z,101987.69
2023-01-04T20:58:19.126Z,101985.22
2023-01-04T21:00:49.314Z,101974.47
2023-01-04T21:03:16.869Z,101969.66
2023-01-04T21:05:45.182Z,101967.94
2023-01-04T21:08:13.262Z,101958.25
2023-01-04T21:10:44.164Z,101953.06
2023-01-04T21:13:12.725Z,101949.50
2023-01-04T21:15:40.308Z,101943.84
2023-01-04T21:18:11.195Z,101940.66
2023-01-04T21:20:45.810Z,101947.53
2023-01-04T21:23:18.818Z,101946.31
2023-01-04T21:25:49.472Z,101942.59
2023-01-04T21:28:21.136Z,101956.34
2023-01-04T21:30:53.747Z,101953.91
2023-01-04T21:33:21.201Z,101957.53
2023-01-04T21:35:53.046Z,101951.50
2023-01-04T21:38:25.599Z,101941.75
2023-01-04T21:40:52.925Z,101948.97
2023-01-04T21:43:20.333Z,101940.13
2023-01-04T21:45:53.077Z,101938.84
2023-01-04T21:48:20.423Z,101940.13
2023-01-04T21:50:47.736Z,101940.59
2023-01-04T21:53:15.040Z,101935.75
2023-01-04T21:55:44.491Z,101932.84
2023-01-04T21:58:11.853Z,101934.94
2023-01-04T22:00:41.983Z,101945.41
2023-01-04T22:03:12.338Z,101937.75
2023-01-04T22:05:41.973Z,101932.56
2023-01-04T22:08:12.192Z,101926.91
2023-01-04T22:10:41.930Z,101915.03
2023-01-04T22:13:12.252Z,101927.34
2023-01-04T22:15:40.276Z,101936.00
2023-01-04T22:18:11.164Z,101935.16
2023-01-04T22:20:40.676Z,101919.53
2023-01-04T22:23:08.184Z,101921.31
2023-01-04T22:25:38.554Z,101922.19
2023-01-04T22:28:11.197Z,101927.31
2023-01-04T22:30:43.431Z,101926.28
2023-01-04T22:33:16.076Z,101927.16
2023-01-04T22:35:43.477Z,101920.31
2023-01-04T22:38:22.681Z,101928.88
2023-01-04T22:40:52.241Z,101924.78
2023-01-04T22:43:22.619Z,101924.84
2023-01-04T22:45:59.085Z,101910.84
2023-01-04T22:48:30.203Z,101910.50
2023-01-04T22:50:57.802Z,101905.13
2023-01-04T22:53:25.188Z,101906.59
2023-01-04T22:56:18.212Z,101902.63
2023-01-04T22:58:52.936Z,101901.75
2023-01-04T23:01:25.699Z,101896.44
2023-01-04T23:03:56.290Z,101894.13
2023-01-04T23:06:25.375Z,101893.53
2023-01-04T23:09:14.291Z,101887.72
2023-01-04T23:11:45.234Z,101883.16
2023-01-04T23:14:15.727Z,101891.94
2023-01-04T23:16:46.450Z,101886.94
2023-01-04T23:19:14.370Z,101885.56
2023-01-04T23:21:47.205Z,101886.63
2023-01-04T23:24:17.468Z,101882.16
2023-01-04T23:26:47.319Z,101884.81
2023-01-04T23:29:14.671Z,101882.81
2023-01-04T23:31:44.274Z,101880.44
2023-01-04T23:34:12.606Z,101874.25
2023-01-04T23:36:41.596Z,101868.16
2023-01-04T23:39:16.982Z,101865.78
2023-01-04T23:41:47.362Z,101863.69
2023-01-04T23:44:25.948Z,101858.03
2023-01-04T23:47:00.373Z,101850.75
2023-01-04T23:49:30.438Z,101844.19
2023-01-04T23:52:00.830Z,101847.41
2023-01-04T23:54:28.761Z,101848.22
2023-01-04T23:56:56.511Z,101838.91
2023-01-04T23:59:26.787Z,101827.63
